createdAt,value
2023-03-27T00:00:44.649Z,999.29
2023-03-27T00:01:44.841Z,999.36
2023-03-27T00:02:45.056Z,999.44
2023-03-27T00:03:45.251Z,999.44
2023-03-27T00:04:45.412Z,999.46
2023-03-27T00:05:45.566Z,999.48
2023-03-27T00:06:45.730Z,999.46
2023-03-27T00:07:45.878Z,999.47
2023-03-27T00:08:46.025Z,999.48
2023-03-27T00:09:53.186Z,999.47
2023-03-27T00:10:46.415Z,999.50
2023-03-27T00:11:46.581Z,999.50
2023-03-27T00:12:46.723Z,999.50
2023-03-27T00:13:49.268Z,999.61
2023-03-27T00:14:47.049Z,999.59
2023-03-27T00:15:47.303Z,999.60
2023-03-27T00:16:47.519Z,999.59
2023-03-27T00:17:47.637Z,999.60
2023-03-27T00:18:47.752Z,999.63
2023-03-27T00:19:47.895Z,999.66
2023-03-27T00:20:48.058Z,999.66
2023-03-27T00:21:48.225Z,999.65
2023-03-27T00:22:48.389Z,999.64
2023-03-27T00:23:48.555Z,999.71
2023-03-27T00:24:48.702Z,999.67
2023-03-27T00:25:48.881Z,999.75
2023-03-27T00:26:49.063Z,999.79
2023-03-27T00:27:49.225Z,999.76
2023-03-27T00:28:49.368Z,999.82
2023-03-27T00:29:49.525Z,999.81
2023-03-27T00:30:49.732Z,999.82
2023-03-27T00:31:49.872Z,999.80
2023-03-27T00:32:50.033Z,999.82
2023-03-27T00:33:50.192Z,999.88
2023-03-27T00:34:50.330Z,999.91
2023-03-27T00:35:50.640Z,999.90
2023-03-27T00:36:50.797Z,999.91
2023-03-27T00:37:50.948Z,999.91
2023-03-27T00:38:51.104Z,999.88
2023-03-27T00:39:51.261Z,999.92
2023-03-27T00:40:51.421Z,999.97
2023-03-27T00:41:51.617Z,999.97
2023-03-27T00:42:51.751Z,1000.03
2023-03-27T00:43:51.920Z,1000.03
2023-03-27T00:44:52.085Z,1000.05
2023-03-27T00:45:52.242Z,1000.09
2023-03-27T00:46:52.385Z,1000.00
2023-03-27T00:47:52.584Z,1000.12
2023-03-27T00:48:52.740Z,1000.11
2023-03-27T00:49:52.893Z,1000.13
2023-03-27T00:50:53.056Z,1000.11
2023-03-27T00:51:53.223Z,1000.14
2023-03-27T00:52:53.401Z,1000.17
2023-03-27T00:53:53.578Z,1000.16
2023-03-27T00:54:53.724Z,1000.21
2023-03-27T00:55:53.992Z,1000.21
2023-03-27T00:56:54.206Z,1000.20
2023-03-27T00:57:54.374Z,1000.17
2023-03-27T00:58:54.535Z,1000.15
2023-03-27T00:59:54.694Z,1000.14
2023-03-27T01:00:55.266Z,1000.11
2023-03-27T01:01:55.050Z,1000.12
2023-03-27T01:02:55.279Z,1000.17
2023-03-27T01:03:56.545Z,1000.16
2023-03-27T01:04:55.673Z,1000.16
2023-03-27T01:05:55.840Z,1000.18
2023-03-27T01:06:56.023Z,1000.26
2023-03-27T01:08:00.672Z,1000.25
2023-03-27T01:08:57.410Z,1000.32
2023-03-27T01:09:56.592Z,1000.32
2023-03-27T01:10:56.914Z,1000.31
2023-03-27T01:11:56.996Z,1000.34
2023-03-27T01:12:57.156Z,1000.35
2023-03-27T01:13:57.315Z,1000.33
2023-03-27T01:14:57.477Z,1000.33
2023-03-27T01:15:57.667Z,1000.33
2023-03-27T01:16:57.828Z,1000.33
2023-03-27T01:17:58.060Z,1000.37
2023-03-27T01:18:58.140Z,1000.35
2023-03-27T01:19:58.406Z,1000.29
2023-03-27T01:20:58.579Z,1000.32
2023-03-27T01:21:58.774Z,1000.31
2023-03-27T01:22:58.940Z,1000.34
2023-03-27T01:24:00.750Z,1000.38
2023-03-27T01:24:59.284Z,1000.41
2023-03-27T01:25:59.449Z,1000.46
2023-03-27T01:26:59.615Z,1000.50
2023-03-27T01:27:59.779Z,1000.55
2023-03-27T01:28:59.930Z,1000.56
2023-03-27T01:30:00.110Z,1000.56
2023-03-27T01:31:00.279Z,1000.58
2023-03-27T01:32:00.418Z,1000.62
2023-03-27T01:33:00.604Z,1000.62
2023-03-27T01:34:00.777Z,1000.61
2023-03-27T01:35:03.497Z,1000.65
2023-03-27T01:36:01.207Z,1000.64
2023-03-27T01:37:01.350Z,1000.62
2023-03-27T01:38:01.517Z,1000.64
2023-03-27T01:39:01.736Z,1000.63
2023-03-27T01:40:01.872Z,1000.64
2023-03-27T01:41:02.025Z,1000.68
2023-03-27T01:42:02.205Z,1000.69
2023-03-27T01:43:02.356Z,1000.72
2023-03-27T01:44:02.533Z,1000.71
2023-03-27T01:45:02.707Z,1000.73
2023-03-27T01:46:02.859Z,1000.74
2023-03-27T01:47:03.049Z,1000.75
2023-03-27T01:48:03.286Z,1000.77
2023-03-27T01:49:03.412Z,1000.78
2023-03-27T01:50:03.584Z,1000.77
2023-03-27T01:51:03.735Z,1000.83
2023-03-27T01:52:03.906Z,1000.82
2023-03-27T01:53:04.073Z,1000.85
2023-03-27T01:54:04.237Z,1000.83
2023-03-27T01:55:04.381Z,1000.91
2023-03-27T01:56:04.548Z,1000.89
2023-03-27T01:57:04.742Z,1000.91
2023-03-27T01:58:04.879Z,1000.87
2023-03-27T01:59:05.037Z,1000.94
2023-03-27T02:00:18.760Z,1000.89
2023-03-27T02:01:06.549Z,1000.90
2023-03-27T02:02:05.545Z,1000.92
2023-03-27T02:03:05.775Z,1000.92
2023-03-27T02:04:05.913Z,1000.94
2023-03-27T02:05:06.076Z,1000.93
2023-03-27T02:06:06.208Z,1000.96
2023-03-27T02:07:06.381Z,1001.00
2023-03-27T02:08:06.568Z,1000.97
2023-03-27T02:09:06.709Z,1000.94
2023-03-27T02:10:06.872Z,1000.95
2023-03-27T02:11:07.028Z,1000.97
2023-03-27T02:12:07.230Z,1000.97
2023-03-27T02:13:07.366Z,1001.03
2023-03-27T02:14:07.527Z,1001.07
2023-03-27T02:15:23.288Z,1001.06
2023-03-27T02:16:08.877Z,1001.07
2023-03-27T02:17:08.038Z,1001.03
2023-03-27T02:18:08.195Z,1001.05
2023-03-27T02:19:08.346Z,1001.08
2023-03-27T02:20:08.524Z,1001.10
2023-03-27T02:21:08.677Z,1001.13
2023-03-27T02:22:08.862Z,1001.15
2023-03-27T02:23:09.008Z,1001.12
2023-03-27T02:24:09.202Z,1001.17
2023-03-27T02:25:09.350Z,1001.22
2023-03-27T02:26:09.518Z,1001.24
2023-03-27T02:27:09.736Z,1001.26
2023-03-27T02:28:09.927Z,1001.27
2023-03-27T02:29:10.084Z,1001.27
2023-03-27T02:30:10.255Z,1001.25
2023-03-27T02:31:32.720Z,1001.37
2023-03-27T02:32:11.790Z,1001.36
2023-03-27T02:33:10.851Z,1001.34
2023-03-27T02:34:10.992Z,1001.39
2023-03-27T02:35:11.162Z,1001.42
2023-03-27T02:36:11.402Z,1001.42
2023-03-27T02:37:11.542Z,1001.47
2023-03-27T02:38:11.749Z,1001.47
2023-03-27T02:39:11.906Z,1001.48
2023-03-27T02:40:12.059Z,1001.51
2023-03-27T02:41:12.220Z,1001.51
2023-03-27T02:42:12.392Z,1001.56
2023-03-27T02:43:12.567Z,1001.58
2023-03-27T02:44:12.721Z,1001.58
2023-03-27T02:45:12.894Z,1001.60
2023-03-27T02:46:13.106Z,1001.60
2023-03-27T02:47:13.247Z,1001.61
2023-03-27T02:48:13.438Z,1001.69
2023-03-27T02:49:13.597Z,1001.70
2023-03-27T02:50:13.770Z,1001.75
2023-03-27T02:51:14.496Z,1001.72
2023-03-27T02:52:14.115Z,1001.80
2023-03-27T02:53:14.300Z,1001.84
2023-03-27T02:54:14.478Z,1001.82
2023-03-27T02:55:14.658Z,1001.88
2023-03-27T02:56:14.844Z,1001.89
2023-03-27T02:57:15.159Z,1001.88
2023-03-27T02:58:15.245Z,1001.94
2023-03-27T02:59:15.475Z,1001.92
2023-03-27T03:00:15.645Z,1001.97
2023-03-27T03:01:15.842Z,1001.95
2023-03-27T03:02:16.065Z,1002.01
2023-03-27T03:03:16.373Z,1002.01
2023-03-27T03:04:16.401Z,1002.00
2023-03-27T03:05:16.591Z,1001.96
2023-03-27T03:06:16.758Z,1002.03
2023-03-27T03:07:16.954Z,1002.03
2023-03-27T03:08:17.142Z,1002.10
2023-03-27T03:09:17.324Z,1002.08
2023-03-27T03:10:17.498Z,1002.07
2023-03-27T03:11:17.682Z,1002.08
2023-03-27T03:12:17.881Z,1002.07
2023-03-27T03:13:18.066Z,1002.10
2023-03-27T03:14:18.245Z,1002.08
2023-03-27T03:15:18.451Z,1002.10
2023-03-27T03:16:18.674Z,1002.13
2023-03-27T03:17:18.824Z,1002.14
2023-03-27T03:18:19.024Z,1002.18
2023-03-27T03:19:19.197Z,1002.16
2023-03-27T03:20:19.370Z,1002.19
2023-03-27T03:21:19.535Z,1002.24
2023-03-27T03:22:20.177Z,1002.34
2023-03-27T03:23:19.944Z,1002.31
2023-03-27T03:24:20.119Z,1002.32
2023-03-27T03:25:20.294Z,1002.30
2023-03-27T03:26:20.468Z,1002.32
2023-03-27T03:27:20.657Z,1002.38
2023-03-27T03:28:20.842Z,1002.39
2023-03-27T03:29:21.036Z,1002.37
2023-03-27T03:30:21.235Z,1002.43
2023-03-27T03:31:21.409Z,1002.44
2023-03-27T03:32:21.619Z,1002.44
2023-03-27T03:33:21.784Z,1002.49
2023-03-27T03:34:21.938Z,1002.48
2023-03-27T03:35:22.216Z,1002.50
2023-03-27T03:36:22.366Z,1002.49
2023-03-27T03:37:22.562Z,1002.52
2023-03-27T03:38:22.735Z,1002.56
2023-03-27T03:39:22.926Z,1002.57
2023-03-27T03:40:23.094Z,1002.56
2023-03-27T03:41:23.271Z,1002.54
2023-03-27T03:42:24.115Z,1002.62
2023-03-27T03:43:23.680Z,1002.62
2023-03-27T03:44:23.861Z,1002.62
2023-03-27T03:45:24.045Z,1002.60
2023-03-27T03:46:24.258Z,1002.58
2023-03-27T03:47:24.459Z,1002.63
2023-03-27T03:48:24.624Z,1002.65
2023-03-27T03:49:24.805Z,1002.65
2023-03-27T03:50:24.981Z,1002.70
2023-03-27T03:51:25.162Z,1002.72
2023-03-27T03:52:25.337Z,1002.73
2023-03-27T03:53:25.530Z,1002.80
2023-03-27T03:54:25.711Z,1002.78
2023-03-27T03:55:25.906Z,1002.76
2023-03-27T03:56:26.060Z,1002.78
2023-03-27T03:57:26.234Z,1002.80
2023-03-27T03:58:34.497Z,1002.81
2023-03-27T03:59:27.571Z,1002.83
2023-03-27T04:00:26.773Z,1002.86
2023-03-27T04:01:26.965Z,1002.87
2023-03-27T04:02:27.204Z,1002.92
2023-03-27T04:03:27.445Z,1002.94
2023-03-27T04:04:27.518Z,1002.95
2023-03-27T04:05:27.718Z,1002.93
2023-03-27T04:06:27.906Z,1002.95
2023-03-27T04:07:28.110Z,1002.93
2023-03-27T04:08:28.322Z,1002.93
2023-03-27T04:10:27.337Z,1002.92
2023-03-27T04:11:27.434Z,1002.93
2023-03-27T04:12:28.048Z,1002.92
2023-03-27T04:13:27.715Z,1003.00
2023-03-27T04:14:27.817Z,1003.00
2023-03-27T04:15:27.945Z,1003.02
2023-03-27T04:16:28.058Z,1003.06
2023-03-27T04:17:28.255Z,1003.07
2023-03-27T04:18:28.486Z,1003.06
2023-03-27T04:19:28.554Z,1003.10
2023-03-27T04:20:28.661Z,1003.11
2023-03-27T04:21:28.789Z,1003.12
2023-03-27T04:22:28.893Z,1003.15
2023-03-27T04:23:29.051Z,1003.16
2023-03-27T04:24:29.172Z,1003.17
2023-03-27T04:25:29.331Z,1003.16
2023-03-27T04:26:29.572Z,1003.20
2023-03-27T04:27:29.618Z,1003.18
2023-03-27T04:28:29.777Z,1003.18
2023-03-27T04:29:29.928Z,1003.20
2023-03-27T04:30:30.068Z,1003.21
2023-03-27T04:31:30.409Z,1003.22
2023-03-27T04:32:30.373Z,1003.20
2023-03-27T04:33:30.896Z,1003.24
2023-03-27T04:34:30.685Z,1003.26
2023-03-27T04:35:30.847Z,1003.32
2023-03-27T04:36:31.404Z,1003.28
2023-03-27T04:37:31.252Z,1003.27
2023-03-27T04:38:31.336Z,1003.30
2023-03-27T04:39:31.545Z,1003.30
2023-03-27T04:40:31.700Z,1003.34
2023-03-27T04:41:31.844Z,1003.35
2023-03-27T04:42:31.968Z,1003.32
2023-03-27T04:43:32.121Z,1003.31
2023-03-27T04:44:32.254Z,1003.37
2023-03-27T04:45:32.419Z,1003.36
2023-03-27T04:46:32.546Z,1003.37
2023-03-27T04:47:32.718Z,1003.36
2023-03-27T04:48:32.833Z,1003.38
2023-03-27T04:49:32.966Z,1003.37
2023-03-27T04:50:33.148Z,1003.38
2023-03-27T04:51:33.269Z,1003.43
2023-03-27T04:52:33.432Z,1003.47
2023-03-27T04:53:33.558Z,1003.48
2023-03-27T04:54:33.692Z,1003.50
2023-03-27T04:55:33.818Z,1003.48
2023-03-27T04:56:33.963Z,1003.57
2023-03-27T04:57:34.097Z,1003.57
2023-03-27T04:58:36.852Z,1003.54
2023-03-27T04:59:34.361Z,1003.58
2023-03-27T05:00:34.457Z,1003.62
2023-03-27T05:01:34.611Z,1003.62
2023-03-27T05:02:34.712Z,1003.66
2023-03-27T05:03:35.278Z,1003.64
2023-03-27T05:04:35.016Z,1003.70
2023-03-27T05:05:35.186Z,1003.70
2023-03-27T05:06:35.298Z,1003.75
2023-03-27T05:07:35.425Z,1003.78
2023-03-27T05:08:35.544Z,1003.79
2023-03-27T05:09:35.648Z,1003.80
2023-03-27T05:10:35.776Z,1003.77
2023-03-27T05:11:35.895Z,1003.84
2023-03-27T05:12:36.013Z,1003.82
2023-03-27T05:13:36.168Z,1003.86
2023-03-27T05:14:36.284Z,1003.87
2023-03-27T05:15:36.436Z,1003.82
2023-03-27T05:16:36.584Z,1003.88
2023-03-27T05:17:36.742Z,1003.87
2023-03-27T05:18:36.843Z,1003.90
2023-03-27T05:19:37.945Z,1003.88
2023-03-27T05:20:37.072Z,1003.87
2023-03-27T05:21:37.201Z,1003.92
2023-03-27T05:22:37.315Z,1003.93
2023-03-27T05:23:37.481Z,1003.91
2023-03-27T05:24:37.602Z,1003.96
2023-03-27T05:25:37.720Z,1003.93
2023-03-27T05:26:38.563Z,1003.97
2023-03-27T05:27:37.955Z,1004.01
2023-03-27T05:28:38.087Z,1004.00
2023-03-27T05:29:46.987Z,1003.98
2023-03-27T05:30:39.349Z,1004.03
2023-03-27T05:31:38.461Z,1004.01
2023-03-27T05:32:38.644Z,1004.05
2023-03-27T05:33:38.770Z,1004.05
2023-03-27T05:34:38.992Z,1004.10
2023-03-27T05:35:39.008Z,1004.04
2023-03-27T05:36:39.173Z,1004.08
2023-03-27T05:37:39.310Z,1004.08
2023-03-27T05:38:39.446Z,1004.12
2023-03-27T05:39:39.570Z,1004.11
2023-03-27T05:40:39.688Z,1004.14
2023-03-27T05:41:39.829Z,1004.14
2023-03-27T05:42:39.938Z,1004.17
2023-03-27T05:43:40.122Z,1004.23
2023-03-27T05:44:40.222Z,1004.26
2023-03-27T05:45:40.336Z,1004.25
2023-03-27T05:46:40.510Z,1004.30
2023-03-27T05:47:40.656Z,1004.31
2023-03-27T05:48:40.787Z,1004.33
2023-03-27T05:49:40.912Z,1004.35
2023-03-27T05:50:41.020Z,1004.36
2023-03-27T05:51:47.146Z,1004.44
2023-03-27T05:52:42.225Z,1004.45
2023-03-27T05:53:41.324Z,1004.48
2023-03-27T05:54:41.420Z,1004.42
2023-03-27T05:55:41.525Z,1004.50
2023-03-27T05:56:41.648Z,1004.50
2023-03-27T05:57:41.705Z,1004.53
2023-03-27T05:58:41.841Z,1004.50
2023-03-27T05:59:41.963Z,1004.45
2023-03-27T06:00:42.071Z,1004.50
2023-03-27T06:01:42.138Z,1004.57
2023-03-27T06:02:42.293Z,1004.56
2023-03-27T06:03:42.489Z,1004.59
2023-03-27T06:04:42.475Z,1004.57
2023-03-27T06:05:42.543Z,1004.62
2023-03-27T06:06:42.712Z,1004.61
2023-03-27T06:07:43.594Z,1004.56
2023-03-27T06:08:42.965Z,1004.64
2023-03-27T06:09:43.129Z,1004.65
2023-03-27T06:10:43.278Z,1004.69
2023-03-27T06:11:43.448Z,1004.70
2023-03-27T06:12:43.481Z,1004.69
2023-03-27T06:13:43.615Z,1004.60
2023-03-27T06:14:43.758Z,1004.72
2023-03-27T06:15:43.910Z,1004.74
2023-03-27T06:16:44.018Z,1004.79
2023-03-27T06:17:44.186Z,1004.83
2023-03-27T06:18:44.295Z,1004.84
2023-03-27T06:19:48.881Z,1004.77
2023-03-27T06:20:44.549Z,1004.75
2023-03-27T06:21:44.783Z,1004.79
2023-03-27T06:22:44.818Z,1004.76
2023-03-27T06:23:44.874Z,1004.80
2023-03-27T06:24:45.054Z,1004.86
2023-03-27T06:25:45.096Z,1004.92
2023-03-27T06:26:45.188Z,1004.84
2023-03-27T06:27:45.323Z,1004.91
2023-03-27T06:28:45.465Z,1004.87
2023-03-27T06:29:45.452Z,1004.93
2023-03-27T06:30:45.553Z,1004.89
2023-03-27T06:31:45.684Z,1004.87
2023-03-27T06:32:45.876Z,1004.94
2023-03-27T06:33:45.924Z,1004.91
2023-03-27T06:34:46.008Z,1004.92
2023-03-27T06:35:53.020Z,1004.93
2023-03-27T06:36:47.178Z,1004.91
2023-03-27T06:37:46.758Z,1004.95
2023-03-27T06:38:46.344Z,1004.95
2023-03-27T06:39:46.405Z,1004.98
2023-03-27T06:40:46.485Z,1004.91
2023-03-27T06:41:46.560Z,1004.98
2023-03-27T06:42:46.612Z,1004.98
2023-03-27T06:43:46.683Z,1005.01
2023-03-27T06:44:46.752Z,1005.02
2023-03-27T06:45:46.826Z,1005.09
2023-03-27T06:46:46.882Z,1005.07
2023-03-27T06:47:53.943Z,1005.03
2023-03-27T06:48:47.978Z,1005.08
2023-03-27T06:49:47.023Z,1005.13
2023-03-27T06:50:47.098Z,1005.15
2023-03-27T06:51:47.202Z,1005.16
2023-03-27T06:52:47.282Z,1005.13
2023-03-27T06:53:47.341Z,1005.16
2023-03-27T06:54:47.441Z,1005.26
2023-03-27T06:55:47.530Z,1005.31
2023-03-27T06:56:47.652Z,1005.24
2023-03-27T06:57:47.725Z,1005.32
2023-03-27T06:58:47.810Z,1005.35
2023-03-27T06:59:47.902Z,1005.28
2023-03-27T07:00:48.013Z,1005.31
2023-03-27T07:01:48.162Z,1005.35
2023-03-27T07:02:48.257Z,1005.37
2023-03-27T07:03:48.332Z,1005.39
2023-03-27T07:05:01.578Z,1005.35
2023-03-27T07:05:49.571Z,1005.40
2023-03-27T07:06:48.587Z,1005.48
2023-03-27T07:07:49.410Z,1005.49
2023-03-27T07:08:49.269Z,1005.45
2023-03-27T07:09:48.866Z,1005.40
2023-03-27T07:10:59.931Z,1005.44
2023-03-27T07:11:50.022Z,1005.45
2023-03-27T07:12:49.092Z,1005.43
2023-03-27T07:13:49.180Z,1005.43
2023-03-27T07:14:49.284Z,1005.36
2023-03-27T07:15:49.368Z,1005.40
2023-03-27T07:16:49.463Z,1005.39
2023-03-27T07:17:49.713Z,1005.39
2023-03-27T07:18:49.636Z,1005.40
2023-03-27T07:19:49.735Z,1005.46
2023-03-27T07:20:49.788Z,1005.35
2023-03-27T07:21:50.155Z,1005.42
2023-03-27T07:22:49.953Z,1005.42
2023-03-27T07:23:49.998Z,1005.42
2023-03-27T07:24:50.046Z,1005.44
2023-03-27T07:25:50.343Z,1005.47
2023-03-27T07:26:50.150Z,1005.47
2023-03-27T07:27:50.201Z,1005.44
2023-03-27T07:28:50.234Z,1005.45
2023-03-27T07:29:50.275Z,1005.41
2023-03-27T07:30:50.345Z,1005.45
2023-03-27T07:32:50.462Z,1005.53
2023-03-27T07:33:50.572Z,1005.53
2023-03-27T07:34:50.635Z,1005.55
2023-03-27T07:35:50.702Z,1005.47
2023-03-27T07:36:50.781Z,1005.47
2023-03-27T07:37:50.833Z,1005.60
2023-03-27T07:38:50.846Z,1005.56
2023-03-27T07:39:50.912Z,1005.55
2023-03-27T07:40:50.951Z,1005.55
2023-03-27T07:41:51.007Z,1005.50
2023-03-27T07:42:51.046Z,1005.48
2023-03-27T07:43:51.107Z,1005.51
2023-03-27T07:44:51.152Z,1005.51
2023-03-27T07:45:51.227Z,1005.52
2023-03-27T07:46:51.220Z,1005.58
2023-03-27T07:47:51.308Z,1005.60
2023-03-27T07:48:51.319Z,1005.61
2023-03-27T07:49:51.366Z,1005.61
2023-03-27T07:50:52.909Z,1005.55
2023-03-27T07:51:51.455Z,1005.59
2023-03-27T07:52:51.497Z,1005.54
2023-03-27T07:53:51.541Z,1005.55
2023-03-27T07:54:51.616Z,1005.55
2023-03-27T07:55:51.687Z,1005.57
2023-03-27T07:56:51.859Z,1005.59
2023-03-27T07:58:00.964Z,1005.61
2023-03-27T07:58:52.962Z,1005.68
2023-03-27T07:59:52.005Z,1005.63
2023-03-27T08:00:52.097Z,1005.66
2023-03-27T08:01:52.146Z,1005.65
2023-03-27T08:02:52.314Z,1005.64
2023-03-27T08:03:52.513Z,1005.63
2023-03-27T08:04:52.521Z,1005.58
2023-03-27T08:05:52.483Z,1005.65
2023-03-27T08:06:52.558Z,1005.63
2023-03-27T08:07:52.595Z,1005.71
2023-03-27T08:08:52.695Z,1005.62
2023-03-27T08:09:52.765Z,1005.64
2023-03-27T08:10:52.825Z,1005.71
2023-03-27T08:11:52.906Z,1005.70
2023-03-27T08:12:52.968Z,1005.70
2023-03-27T08:13:53.032Z,1005.61
2023-03-27T08:14:53.114Z,1005.54
2023-03-27T08:15:53.155Z,1005.59
2023-03-27T08:16:55.833Z,1005.60
2023-03-27T08:17:54.333Z,1005.58
2023-03-27T08:18:53.357Z,1005.60
2023-03-27T08:19:53.428Z,1005.74
2023-03-27T08:20:53.485Z,1005.65
2023-03-27T08:21:53.519Z,1005.69
2023-03-27T08:22:53.578Z,1005.77
2023-03-27T08:23:54.442Z,1005.65
2023-03-27T08:24:53.733Z,1005.69
2023-03-27T08:25:53.996Z,1005.70
2023-03-27T08:26:53.889Z,1005.72
2023-03-27T08:27:53.953Z,1005.74
2023-03-27T08:28:54.047Z,1005.74
2023-03-27T08:29:54.076Z,1005.72
2023-03-27T08:30:54.187Z,1005.70
2023-03-27T08:31:55.185Z,1005.73
2023-03-27T08:32:54.358Z,1005.83
2023-03-27T08:33:54.375Z,1005.84
2023-03-27T08:34:54.416Z,1005.84
2023-03-27T08:35:54.542Z,1005.88
2023-03-27T08:36:54.558Z,1005.92
2023-03-27T08:37:54.609Z,1005.91
2023-03-27T08:38:54.723Z,1005.93
2023-03-27T08:39:54.771Z,1005.90
2023-03-27T08:40:54.826Z,1005.95
2023-03-27T08:41:54.930Z,1005.90
2023-03-27T08:42:54.995Z,1005.84
2023-03-27T08:43:55.053Z,1005.90
2023-03-27T08:44:55.126Z,1005.92
2023-03-27T08:45:55.471Z,1005.95
2023-03-27T08:46:55.374Z,1005.91
2023-03-27T08:47:55.426Z,1005.96
2023-03-27T08:48:55.470Z,1005.89
2023-03-27T08:49:56.447Z,1006.01
2023-03-27T08:50:55.618Z,1006.00
2023-03-27T08:51:55.654Z,1006.08
2023-03-27T08:52:55.837Z,1006.05
2023-03-27T08:53:55.913Z,1006.14
2023-03-27T08:54:55.982Z,1006.08
2023-03-27T08:55:56.193Z,1006.21
2023-03-27T08:56:56.187Z,1006.17
2023-03-27T08:57:56.223Z,1006.17
2023-03-27T08:58:56.293Z,1006.00
2023-03-27T08:59:56.326Z,1006.05
2023-03-27T09:00:56.360Z,1006.21
2023-03-27T09:01:56.385Z,1006.11
2023-03-27T09:02:56.490Z,1006.18
2023-03-27T09:03:56.518Z,1006.21
2023-03-27T09:04:56.531Z,1006.10
2023-03-27T09:05:56.759Z,1006.19
2023-03-27T09:06:56.649Z,1006.10
2023-03-27T09:07:56.634Z,1006.13
2023-03-27T09:08:56.650Z,1006.10
2023-03-27T09:09:56.669Z,1006.16
2023-03-27T09:10:56.682Z,1006.01
2023-03-27T09:11:56.779Z,1006.13
2023-03-27T09:12:56.845Z,1006.16
2023-03-27T09:13:56.915Z,1006.13
2023-03-27T09:14:56.918Z,1006.16
2023-03-27T09:15:57.137Z,1006.18
2023-03-27T09:16:57.045Z,1006.20
2023-03-27T09:17:57.084Z,1006.22
2023-03-27T09:18:57.099Z,1006.24
2023-03-27T09:19:57.164Z,1006.32
2023-03-27T09:20:57.161Z,1006.31
2023-03-27T09:21:57.187Z,1006.38
2023-03-27T09:22:57.231Z,1006.34
2023-03-27T09:23:57.272Z,1006.30
2023-03-27T09:24:57.331Z,1006.28
2023-03-27T09:25:57.560Z,1006.33
2023-03-27T09:27:06.812Z,1006.39
2023-03-27T09:27:58.478Z,1006.30
2023-03-27T09:28:57.530Z,1006.26
2023-03-27T09:30:05.890Z,1006.29
2023-03-27T09:30:58.607Z,1006.45
2023-03-27T09:31:57.628Z,1006.39
2023-03-27T09:32:57.734Z,1006.30
2023-03-27T09:33:57.739Z,1006.36
2023-03-27T09:34:57.865Z,1006.33
2023-03-27T09:35:58.139Z,1006.31
2023-03-27T09:36:57.920Z,1006.37
2023-03-27T09:37:57.906Z,1006.32
2023-03-27T09:38:57.936Z,1006.41
2023-03-27T09:39:57.953Z,1006.37
2023-03-27T09:40:57.947Z,1006.29
2023-03-27T09:41:57.929Z,1006.30
2023-03-27T09:42:57.927Z,1006.39
2023-03-27T09:43:57.899Z,1006.36
2023-03-27T09:44:57.872Z,1006.37
2023-03-27T09:45:58.163Z,1006.20
2023-03-27T09:46:57.859Z,1006.19
2023-03-27T09:47:57.883Z,1006.46
2023-03-27T09:48:57.834Z,1006.16
2023-03-27T09:49:57.811Z,1006.28
2023-03-27T09:50:58.003Z,1006.19
2023-03-27T09:51:57.735Z,1006.28
2023-03-27T09:52:57.777Z,1006.27
2023-03-27T09:53:57.785Z,1006.38
2023-03-27T09:54:57.756Z,1006.41
2023-03-27T09:55:57.773Z,1006.42
2023-03-27T09:56:57.794Z,1006.49
2023-03-27T09:57:57.776Z,1006.43
2023-03-27T09:58:57.767Z,1006.47
2023-03-27T09:59:57.749Z,1006.44
2023-03-27T10:00:57.958Z,1006.25
2023-03-27T10:01:57.731Z,1006.24
2023-03-27T10:02:57.737Z,1006.23
2023-03-27T10:03:57.790Z,1006.17
2023-03-27T10:04:57.744Z,1006.23
2023-03-27T10:05:57.722Z,1006.21
2023-03-27T10:06:57.707Z,1006.22
2023-03-27T10:07:57.725Z,1006.30
2023-03-27T10:08:57.741Z,1006.19
2023-03-27T10:10:04.762Z,1006.29
2023-03-27T10:10:58.042Z,1006.33
2023-03-27T10:11:59.426Z,1006.57
2023-03-27T10:12:59.417Z,1006.27
2023-03-27T10:13:57.736Z,1006.32
2023-03-27T10:14:57.766Z,1006.25
2023-03-27T10:15:57.776Z,1006.28
2023-03-27T10:16:57.818Z,1006.36
2023-03-27T10:17:57.916Z,1006.32
2023-03-27T10:18:57.891Z,1006.36
2023-03-27T10:19:57.890Z,1006.38
2023-03-27T10:20:58.109Z,1006.36
2023-03-27T10:21:57.977Z,1006.42
2023-03-27T10:22:58.003Z,1006.39
2023-03-27T10:23:58.015Z,1006.51
2023-03-27T10:24:58.021Z,1006.44
2023-03-27T10:25:58.054Z,1006.36
2023-03-27T10:26:58.096Z,1006.64
2023-03-27T10:27:58.092Z,1006.57
2023-03-27T10:28:58.117Z,1006.50
2023-03-27T10:29:58.130Z,1006.66
2023-03-27T10:30:58.421Z,1006.45
2023-03-27T10:31:58.284Z,1006.55
2023-03-27T10:32:58.302Z,1006.53
2023-03-27T10:33:58.248Z,1006.58
2023-03-27T10:34:58.369Z,1006.58
2023-03-27T10:35:58.307Z,1006.30
2023-03-27T10:36:58.211Z,1006.35
2023-03-27T10:37:58.292Z,1006.53
2023-03-27T10:38:58.266Z,1006.40
2023-03-27T10:39:58.236Z,1006.73
2023-03-27T10:40:58.447Z,1006.66
2023-03-27T10:41:58.152Z,1006.59
2023-03-27T10:42:58.115Z,1006.56
2023-03-27T10:43:58.085Z,1006.43
2023-03-27T10:44:58.015Z,1006.38
2023-03-27T10:45:57.999Z,1006.62
2023-03-27T10:46:57.980Z,1006.45
2023-03-27T10:47:57.974Z,1006.48
2023-03-27T10:48:57.876Z,1006.50
2023-03-27T10:49:57.830Z,1006.43
2023-03-27T10:50:58.123Z,1006.45
2023-03-27T10:51:57.757Z,1006.44
2023-03-27T10:52:57.792Z,1006.68
2023-03-27T10:53:57.837Z,1006.65
2023-03-27T10:54:57.704Z,1006.56
2023-03-27T10:55:57.669Z,1006.29
2023-03-27T10:56:57.698Z,1006.63
2023-03-27T10:57:57.641Z,1006.64
2023-03-27T10:58:57.600Z,1006.48
2023-03-27T10:59:57.558Z,1006.57
2023-03-27T11:00:57.703Z,1006.52
2023-03-27T11:01:57.586Z,1006.40
2023-03-27T11:02:57.676Z,1006.41
2023-03-27T11:03:57.601Z,1006.48
2023-03-27T11:04:57.554Z,1006.55
2023-03-27T11:05:57.543Z,1006.47
2023-03-27T11:06:57.506Z,1006.55
2023-03-27T11:07:57.508Z,1006.59
2023-03-27T11:08:57.501Z,1006.53
2023-03-27T11:09:57.482Z,1006.63
2023-03-27T11:10:57.684Z,1006.72
2023-03-27T11:11:57.500Z,1006.65
2023-03-27T11:12:57.495Z,1006.53
2023-03-27T11:13:57.526Z,1006.47
2023-03-27T11:14:57.507Z,1006.40
2023-03-27T11:15:57.482Z,1006.64
2023-03-27T11:16:57.483Z,1006.69
2023-03-27T11:17:57.511Z,1006.68
2023-03-27T11:18:57.439Z,1006.71
2023-03-27T11:19:57.414Z,1006.67
2023-03-27T11:20:57.583Z,1006.65
2023-03-27T11:21:57.435Z,1006.43
2023-03-27T11:22:57.399Z,1006.57
2023-03-27T11:23:57.411Z,1006.60
2023-03-27T11:24:57.314Z,1006.54
2023-03-27T11:25:57.283Z,1006.51
2023-03-27T11:26:57.236Z,1006.48
2023-03-27T11:27:57.190Z,1006.58
2023-03-27T11:28:57.139Z,1006.47
2023-03-27T11:29:57.127Z,1006.55
2023-03-27T11:30:57.388Z,1006.52
2023-03-27T11:31:57.210Z,1006.69
2023-03-27T11:32:57.134Z,1006.53
2023-03-27T11:33:57.117Z,1006.58
2023-03-27T11:34:57.081Z,1006.52
2023-03-27T11:35:57.138Z,1006.48
2023-03-27T11:36:57.090Z,1006.58
2023-03-27T11:37:57.071Z,1006.87
2023-03-27T11:38:57.011Z,1006.73
2023-03-27T11:39:57.023Z,1006.79
2023-03-27T11:40:57.194Z,1006.76
2023-03-27T11:41:56.971Z,1006.86
2023-03-27T11:42:56.935Z,1006.87
2023-03-27T11:43:56.901Z,1006.84
2023-03-27T11:44:56.877Z,1006.77
2023-03-27T11:45:56.850Z,1006.86
2023-03-27T11:46:56.784Z,1006.81
2023-03-27T11:47:56.795Z,1006.81
2023-03-27T11:48:56.697Z,1006.81
2023-03-27T11:49:56.688Z,1006.88
2023-03-27T11:50:56.921Z,1006.83
2023-03-27T11:51:56.591Z,1006.82
2023-03-27T11:52:56.536Z,1006.79
2023-03-27T11:53:56.510Z,1006.79
2023-03-27T11:54:56.430Z,1006.75
2023-03-27T11:55:56.355Z,1006.87
2023-03-27T11:56:56.381Z,1006.76
2023-03-27T11:57:56.313Z,1006.77
2023-03-27T11:58:56.258Z,1006.78
2023-03-27T11:59:56.239Z,1006.77
2023-03-27T12:00:56.309Z,1006.74
2023-03-27T12:01:56.181Z,1006.56
2023-03-27T12:02:56.219Z,1006.63
2023-03-27T12:03:56.164Z,1006.61
2023-03-27T12:04:55.964Z,1006.55
2023-03-27T12:05:55.899Z,1006.49
2023-03-27T12:06:57.043Z,1006.50
2023-03-27T12:07:56.173Z,1006.46
2023-03-27T12:08:55.777Z,1006.47
2023-03-27T12:09:55.700Z,1006.40
2023-03-27T12:10:55.936Z,1006.58